createdAt,value
2018-12-02T00:00:04.977Z,1000.73
2018-12-02T00:01:04.961Z,1000.76
2018-12-02T00:02:04.910Z,1000.70
2018-12-02T00:03:04.887Z,1000.74
2018-12-02T00:04:04.880Z,1000.62
2018-12-02T00:05:04.910Z,1000.66
2018-12-02T00:06:04.858Z,1000.69
2018-12-02T00:07:04.843Z,1000.63
2018-12-02T00:08:04.831Z,1000.67
2018-12-02T00:09:04.847Z,1000.62
2018-12-02T00:10:04.825Z,1000.63
2018-12-02T00:11:04.799Z,1000.64
2018-12-02T00:12:04.808Z,1000.64
2018-12-02T00:13:04.781Z,1000.57
2018-12-02T00:14:04.793Z,1000.62
2018-12-02T00:15:04.750Z,1000.57
2018-12-02T00:16:04.785Z,1000.56
2018-12-02T00:17:04.737Z,1000.55
2018-12-02T00:18:04.753Z,1000.63
2018-12-02T00:19:04.710Z,1000.57
2018-12-02T00:20:04.691Z,1000.50
2018-12-02T00:21:04.683Z,1000.49
2018-12-02T00:22:04.717Z,1000.51
2018-12-02T00:23:04.662Z,1000.48
2018-12-02T00:24:04.654Z,1000.49
2018-12-02T00:25:04.637Z,1000.48
2018-12-02T00:26:04.650Z,1000.42
2018-12-02T00:27:04.660Z,1000.47
2018-12-02T00:28:04.605Z,1000.41
2018-12-02T00:29:04.644Z,1000.45
2018-12-02T00:30:04.578Z,1000.38
2018-12-02T00:31:04.575Z,1000.33
2018-12-02T00:32:04.561Z,1000.40
2018-12-02T00:33:04.550Z,1000.34
2018-12-02T00:34:04.593Z,1000.36
2018-12-02T00:35:04.558Z,1000.38
2018-12-02T00:36:04.532Z,1000.37
2018-12-02T00:37:04.498Z,1000.32
2018-12-02T00:38:04.491Z,1000.33
2018-12-02T00:39:04.480Z,1000.30
2018-12-02T00:40:04.515Z,1000.31
2018-12-02T00:41:04.465Z,1000.29
2018-12-02T00:42:04.442Z,1000.31
2018-12-02T00:43:04.437Z,1000.32
2018-12-02T00:44:04.423Z,1000.25
2018-12-02T00:45:04.445Z,1000.28
2018-12-02T00:46:04.408Z,1000.22
2018-12-02T00:47:04.422Z,1000.20
2018-12-02T00:48:04.377Z,1000.25
2018-12-02T00:49:04.368Z,1000.14
2018-12-02T00:50:04.357Z,1000.24
2018-12-02T00:51:04.373Z,1000.12
2018-12-02T00:52:04.383Z,1000.17
2018-12-02T00:53:04.319Z,1000.06
2018-12-02T00:54:04.312Z,1000.00
2018-12-02T00:55:04.327Z,1000.05
2018-12-02T00:56:04.287Z,999.93
2018-12-02T00:57:04.308Z,999.90
2018-12-02T00:58:04.285Z,999.85
2018-12-02T00:59:04.257Z,999.91
2018-12-02T01:00:04.244Z,999.92
2018-12-02T01:01:04.262Z,999.80
2018-12-02T01:02:04.221Z,999.89
2018-12-02T01:03:04.207Z,999.88
2018-12-02T01:04:04.195Z,999.82
2018-12-02T01:05:04.182Z,999.81
2018-12-02T01:06:04.200Z,999.80
2018-12-02T01:07:04.169Z,999.79
2018-12-02T01:08:04.156Z,999.77
2018-12-02T01:09:04.137Z,999.74
2018-12-02T01:10:04.128Z,999.73
2018-12-02T01:11:04.143Z,999.73
2018-12-02T01:12:04.165Z,999.72
2018-12-02T01:13:04.095Z,999.72
2018-12-02T01:14:04.083Z,999.68
2018-12-02T01:15:04.082Z,999.75
2018-12-02T01:16:04.134Z,999.59
2018-12-02T01:17:04.051Z,999.66
2018-12-02T01:18:04.039Z,999.67
2018-12-02T01:19:04.033Z,999.51
2018-12-02T01:20:04.020Z,999.53
2018-12-02T01:21:04.039Z,999.49
2018-12-02T01:22:03.990Z,999.54
2018-12-02T01:23:03.986Z,999.55
2018-12-02T01:24:03.974Z,999.60
2018-12-02T01:25:03.962Z,999.51
2018-12-02T01:26:03.987Z,999.51
2018-12-02T01:27:03.938Z,999.56
2018-12-02T01:28:03.927Z,999.54
2018-12-02T01:29:03.916Z,999.53
2018-12-02T01:30:03.899Z,999.50
2018-12-02T01:31:03.933Z,999.61
2018-12-02T01:32:03.881Z,999.47
2018-12-02T01:33:03.877Z,999.51
2018-12-02T01:34:03.855Z,999.51
2018-12-02T01:35:03.849Z,999.57
2018-12-02T01:36:03.869Z,999.56
2018-12-02T01:37:03.834Z,999.54
2018-12-02T01:38:03.839Z,999.43
2018-12-02T01:39:03.804Z,999.47
2018-12-02T01:40:03.788Z,999.53
2018-12-02T01:41:03.779Z,999.50
2018-12-02T01:42:03.763Z,999.45
2018-12-02T01:43:03.792Z,999.48
2018-12-02T01:44:03.753Z,999.41
2018-12-02T01:45:03.751Z,999.36
2018-12-02T01:46:03.720Z,999.38
2018-12-02T01:47:03.734Z,999.41
2018-12-02T01:48:03.699Z,999.35
2018-12-02T01:49:03.686Z,999.31
2018-12-02T01:50:03.688Z,999.37
2018-12-02T01:51:03.704Z,999.27
2018-12-02T01:52:10.784Z,999.31
2018-12-02T01:53:03.650Z,999.25
2018-12-02T01:54:03.633Z,999.21
2018-12-02T01:55:03.619Z,999.19
2018-12-02T01:56:03.654Z,999.23
2018-12-02T01:57:03.605Z,999.23
2018-12-02T01:58:03.625Z,999.19
2018-12-02T01:59:03.612Z,999.17
2018-12-02T02:00:03.567Z,999.19
2018-12-02T02:01:03.555Z,999.17
2018-12-02T02:02:03.578Z,999.14
2018-12-02T02:03:03.532Z,999.19
2018-12-02T02:04:03.524Z,999.20
2018-12-02T02:05:03.513Z,999.15
2018-12-02T02:06:03.496Z,999.18
2018-12-02T02:07:03.511Z,999.08
2018-12-02T02:08:03.476Z,999.02
2018-12-02T02:09:03.466Z,999.06
2018-12-02T02:10:03.453Z,998.94
2018-12-02T02:11:03.471Z,999.00
2018-12-02T02:12:03.428Z,998.94
2018-12-02T02:13:03.420Z,998.97
2018-12-02T02:14:03.496Z,998.95
2018-12-02T02:15:03.429Z,998.98
2018-12-02T02:16:03.380Z,998.97
2018-12-02T02:17:03.428Z,998.98
2018-12-02T02:18:03.379Z,998.95
2018-12-02T02:19:03.354Z,998.94
2018-12-02T02:20:03.342Z,998.85
2018-12-02T02:21:03.357Z,998.85
2018-12-02T02:22:03.325Z,998.86
2018-12-02T02:23:03.307Z,998.80
2018-12-02T02:24:03.290Z,998.74
2018-12-02T02:25:03.325Z,998.83
2018-12-02T02:26:03.276Z,998.83
2018-12-02T02:27:03.259Z,998.78
2018-12-02T02:28:03.252Z,998.81
2018-12-02T02:29:03.269Z,998.77
2018-12-02T02:30:03.255Z,998.76
2018-12-02T02:31:03.246Z,998.78
2018-12-02T02:32:03.205Z,998.74
2018-12-02T02:33:03.193Z,998.61
2018-12-02T02:34:03.209Z,998.70
2018-12-02T02:35:03.169Z,998.56
2018-12-02T02:36:03.199Z,998.66
2018-12-02T02:37:03.154Z,998.65
2018-12-02T02:38:03.167Z,998.62
2018-12-02T02:39:03.128Z,998.59
2018-12-02T02:40:03.151Z,998.59
2018-12-02T02:41:03.099Z,998.59
2018-12-02T02:42:03.092Z,998.54
2018-12-02T02:43:03.127Z,998.54
2018-12-02T02:44:03.073Z,998.55
2018-12-02T02:45:03.081Z,998.53
2018-12-02T02:46:03.046Z,998.51
2018-12-02T02:47:03.030Z,998.47
2018-12-02T02:48:03.027Z,998.53
2018-12-02T02:49:03.052Z,998.47
2018-12-02T02:50:03.007Z,998.49
2018-12-02T02:51:02.990Z,998.50
2018-12-02T02:52:02.981Z,998.48
2018-12-02T02:53:02.965Z,998.50
2018-12-02T02:54:02.998Z,998.42
2018-12-02T02:55:02.957Z,998.46
2018-12-02T02:56:02.941Z,998.42
2018-12-02T02:57:02.920Z,998.44
2018-12-02T02:58:02.909Z,998.41
2018-12-02T02:59:02.937Z,998.41
2018-12-02T03:00:02.888Z,998.45
2018-12-02T03:01:02.883Z,998.46
2018-12-02T03:02:02.877Z,998.46
2018-12-02T03:03:02.862Z,998.48
2018-12-02T03:04:02.899Z,998.51
2018-12-02T03:05:02.838Z,998.47
2018-12-02T03:06:02.884Z,998.46
2018-12-02T03:07:02.812Z,998.41
2018-12-02T03:08:02.807Z,998.39
2018-12-02T03:09:02.792Z,998.43
2018-12-02T03:10:02.775Z,998.39
2018-12-02T03:11:02.836Z,998.41
2018-12-02T03:12:02.761Z,998.36
2018-12-02T03:13:02.781Z,998.28
2018-12-02T03:14:02.740Z,998.33
2018-12-02T03:15:02.719Z,998.27
2018-12-02T03:16:02.725Z,998.33
2018-12-02T03:17:02.699Z,998.28
2018-12-02T03:18:02.746Z,998.27
2018-12-02T03:19:02.676Z,998.27
2018-12-02T03:20:02.667Z,998.22
2018-12-02T03:21:02.665Z,998.30
2018-12-02T03:22:02.651Z,998.25
2018-12-02T03:23:02.685Z,998.22
2018-12-02T03:24:02.655Z,998.21
2018-12-02T03:25:02.616Z,998.23
2018-12-02T03:26:02.598Z,998.21
2018-12-02T03:27:02.659Z,998.18
2018-12-02T03:28:02.605Z,998.24
2018-12-02T03:29:02.577Z,998.21
2018-12-02T03:30:02.567Z,998.19
2018-12-02T03:31:02.544Z,998.18
2018-12-02T03:32:02.530Z,998.16
2018-12-02T03:33:02.551Z,998.15
2018-12-02T03:34:02.514Z,998.18
2018-12-02T03:35:02.581Z,998.09
2018-12-02T03:36:02.503Z,998.10
2018-12-02T03:37:02.477Z,998.07
2018-12-02T03:38:02.504Z,998.01
2018-12-02T03:39:02.462Z,998.09
2018-12-02T03:40:02.446Z,998.03
2018-12-02T03:41:02.439Z,997.98
2018-12-02T03:42:02.432Z,997.92
2018-12-02T03:43:02.433Z,997.89
2018-12-02T03:44:02.394Z,997.93
2018-12-02T03:45:02.429Z,997.91
2018-12-02T03:46:02.378Z,997.89
2018-12-02T03:47:02.401Z,997.88
2018-12-02T03:48:02.352Z,997.80
2018-12-02T03:49:02.342Z,997.86
2018-12-02T03:50:02.368Z,997.81
2018-12-02T03:51:02.377Z,997.81
2018-12-02T03:52:02.330Z,997.82
2018-12-02T03:53:02.343Z,997.87
2018-12-02T03:54:02.287Z,997.80
2018-12-02T03:55:02.306Z,997.80
2018-12-02T03:56:02.296Z,997.81
2018-12-02T03:57:02.266Z,997.81
2018-12-02T03:58:02.247Z,997.78
2018-12-02T03:59:02.250Z,997.81
2018-12-02T04:00:02.219Z,997.81
2018-12-02T04:01:02.261Z,997.74
2018-12-02T04:02:02.207Z,997.79
2018-12-02T04:03:02.192Z,997.71
2018-12-02T04:04:02.175Z,997.73
2018-12-02T04:05:02.174Z,997.72
2018-12-02T04:06:02.188Z,997.70
2018-12-02T04:07:02.220Z,997.66
2018-12-02T04:08:02.163Z,997.66
2018-12-02T04:09:02.123Z,997.64
2018-12-02T04:10:02.129Z,997.61
2018-12-02T04:11:02.133Z,997.66
2018-12-02T04:12:02.094Z,997.60
2018-12-02T04:13:02.078Z,997.56
2018-12-02T04:14:02.068Z,997.52
2018-12-02T04:15:02.089Z,997.52
2018-12-02T04:16:02.092Z,997.49
2018-12-02T04:17:02.031Z,997.51
2018-12-02T04:18:02.031Z,997.43
2018-12-02T04:19:02.007Z,997.40
2018-12-02T04:20:02.009Z,997.31
2018-12-02T04:21:02.047Z,997.37
2018-12-02T04:22:01.980Z,997.35
2018-12-02T04:23:01.971Z,997.39
2018-12-02T04:24:01.958Z,997.32
2018-12-02T04:25:01.955Z,997.38
2018-12-02T04:26:01.973Z,997.36
2018-12-02T04:27:01.959Z,997.34
2018-12-02T04:28:01.912Z,997.26
2018-12-02T04:29:01.906Z,997.27
2018-12-02T04:30:01.892Z,997.19
2018-12-02T04:31:01.944Z,997.28
2018-12-02T04:32:01.869Z,997.18
2018-12-02T04:33:01.857Z,997.16
2018-12-02T04:34:01.912Z,997.17
2018-12-02T04:35:01.843Z,997.13
2018-12-02T04:36:01.823Z,997.09
2018-12-02T04:37:01.830Z,997.07
2018-12-02T04:38:01.841Z,997.05
2018-12-02T04:39:01.811Z,997.05
2018-12-02T04:40:01.782Z,997.08
2018-12-02T04:41:01.790Z,997.08
2018-12-02T04:42:01.797Z,997.08
2018-12-02T04:43:01.748Z,997.10
2018-12-02T04:44:01.765Z,997.08
2018-12-02T04:45:01.742Z,996.99
2018-12-02T04:46:01.710Z,997.01
2018-12-02T04:47:01.731Z,997.02
2018-12-02T04:48:01.729Z,997.03
2018-12-02T04:49:01.687Z,997.01
2018-12-02T04:50:01.676Z,997.03
2018-12-02T04:51:01.671Z,996.96
2018-12-02T04:52:01.648Z,997.03
2018-12-02T04:53:01.665Z,997.04
2018-12-02T04:54:01.632Z,996.97
2018-12-02T04:55:01.610Z,997.02
2018-12-02T04:56:01.614Z,996.95
2018-12-02T04:57:01.588Z,996.87
2018-12-02T04:58:01.659Z,996.93
2018-12-02T04:59:01.566Z,996.89
2018-12-02T05:00:01.560Z,996.88
2018-12-02T05:01:01.547Z,996.94
2018-12-02T05:02:01.548Z,996.86
2018-12-02T05:03:01.563Z,996.82
2018-12-02T05:04:01.517Z,996.85
2018-12-02T05:05:01.513Z,996.77
2018-12-02T05:06:01.502Z,996.72
2018-12-02T05:07:01.481Z,996.72
2018-12-02T05:08:01.526Z,996.74
2018-12-02T05:09:01.462Z,996.72
2018-12-02T05:10:01.441Z,996.66
2018-12-02T05:11:01.534Z,996.67
2018-12-02T05:12:01.428Z,996.69
2018-12-02T05:13:01.413Z,996.65
2018-12-02T05:14:01.415Z,996.70
2018-12-02T05:15:01.395Z,996.74
2018-12-02T05:16:01.412Z,996.60
2018-12-02T05:17:01.373Z,996.61
2018-12-02T05:18:01.359Z,996.59
2018-12-02T05:19:01.400Z,996.66
2018-12-02T05:20:01.335Z,996.51
2018-12-02T05:21:01.331Z,996.58
2018-12-02T05:22:01.350Z,996.61
2018-12-02T05:23:01.297Z,996.50
2018-12-02T05:24:01.286Z,996.56
2018-12-02T05:25:01.302Z,996.49
2018-12-02T05:26:01.276Z,996.51
2018-12-02T05:27:01.258Z,996.41
2018-12-02T05:28:01.251Z,996.40
2018-12-02T05:29:01.232Z,996.40
2018-12-02T05:30:01.257Z,996.37
2018-12-02T05:31:01.216Z,996.31
2018-12-02T05:32:01.202Z,996.36
2018-12-02T05:33:01.222Z,996.30
2018-12-02T05:34:01.178Z,996.27
2018-12-02T05:35:01.166Z,996.26
2018-12-02T05:36:01.213Z,996.26
2018-12-02T05:37:01.145Z,996.19
2018-12-02T05:38:01.180Z,996.19
2018-12-02T05:39:01.741Z,996.15
2018-12-02T05:40:01.106Z,996.21
2018-12-02T05:41:01.097Z,996.08
2018-12-02T05:42:01.089Z,996.18
2018-12-02T05:43:02.239Z,996.02
2018-12-02T05:44:01.077Z,996.06
2018-12-02T05:45:01.064Z,996.08
2018-12-02T05:46:01.106Z,996.00
2018-12-02T05:47:01.035Z,996.02
2018-12-02T05:48:01.058Z,996.00
2018-12-02T05:49:01.017Z,995.97
2018-12-02T05:50:01.032Z,995.95
2018-12-02T05:51:00.992Z,995.96
2018-12-02T05:52:00.978Z,995.96
2018-12-02T05:53:00.995Z,995.98
2018-12-02T05:54:00.991Z,995.98
2018-12-02T05:56:09.972Z,995.98
2018-12-02T05:57:09.937Z,995.98
2018-12-02T05:58:09.977Z,995.91
2018-12-02T05:59:09.923Z,995.91
2018-12-02T06:00:09.903Z,995.93
2018-12-02T06:01:09.894Z,995.93
2018-12-02T06:02:09.883Z,995.92
2018-12-02T06:03:09.899Z,995.91
2018-12-02T06:04:09.874Z,995.89
2018-12-02T06:05:09.845Z,995.94
2018-12-02T06:06:09.867Z,995.85
2018-12-02T06:07:09.831Z,995.84
2018-12-02T06:08:09.812Z,995.81
2018-12-02T06:09:09.801Z,995.88
2018-12-02T06:10:09.817Z,995.81
2018-12-02T06:11:09.779Z,995.88
2018-12-02T06:12:09.824Z,995.88
2018-12-02T06:13:09.758Z,995.87
2018-12-02T06:14:09.752Z,995.84
2018-12-02T06:15:09.747Z,995.88
2018-12-02T06:16:09.747Z,995.92
2018-12-02T06:17:09.723Z,995.87
2018-12-02T06:18:09.700Z,995.89
2018-12-02T06:19:09.690Z,995.85
2018-12-02T06:20:09.684Z,995.83
2018-12-02T06:21:09.696Z,995.81
2018-12-02T06:22:09.664Z,995.92
2018-12-02T06:23:09.690Z,995.82
2018-12-02T06:24:09.634Z,995.80
2018-12-02T06:25:09.626Z,995.81
2018-12-02T06:26:09.617Z,995.80
2018-12-02T06:27:09.624Z,995.71
2018-12-02T06:28:09.690Z,995.72
2018-12-02T06:29:09.595Z,995.77
2018-12-02T06:30:09.569Z,995.75
2018-12-02T06:31:09.560Z,995.69
2018-12-02T06:32:09.586Z,995.71
2018-12-02T06:33:09.536Z,995.65
2018-12-02T06:34:09.528Z,995.62
2018-12-02T06:35:09.518Z,995.70
2018-12-02T06:36:09.533Z,995.67
2018-12-02T06:37:09.491Z,995.57
2018-12-02T06:38:09.483Z,995.59
2018-12-02T06:39:09.470Z,995.77
2018-12-02T06:40:09.457Z,995.56
2018-12-02T06:41:09.471Z,995.61
2018-12-02T06:42:09.442Z,995.56
2018-12-02T06:43:09.429Z,995.53
2018-12-02T06:44:09.426Z,995.59
2018-12-02T06:45:09.406Z,995.57
2018-12-02T06:46:09.418Z,995.55
2018-12-02T06:47:09.386Z,995.54
2018-12-02T06:48:09.371Z,995.49
2018-12-02T06:49:09.361Z,995.51
2018-12-02T06:50:09.346Z,995.53
2018-12-02T06:51:09.375Z,995.51
2018-12-02T06:52:09.328Z,995.48
2018-12-02T06:53:09.309Z,995.56
2018-12-02T06:54:09.300Z,995.54
2018-12-02T06:55:09.293Z,995.67
2018-12-02T06:56:09.307Z,995.59
2018-12-02T06:57:09.275Z,995.66
2018-12-02T06:58:09.309Z,995.55
2018-12-02T06:59:09.245Z,995.51
2018-12-02T07:00:09.237Z,995.50
2018-12-02T07:01:09.256Z,995.42
2018-12-02T07:02:09.244Z,995.53
2018-12-02T07:03:09.202Z,995.47
2018-12-02T07:04:09.192Z,995.48
2018-12-02T07:05:09.179Z,995.46
2018-12-02T07:06:09.172Z,995.48
2018-12-02T07:07:09.207Z,995.45
2018-12-02T07:08:09.210Z,995.46
2018-12-02T07:09:09.136Z,995.41
2018-12-02T07:10:09.123Z,995.42
2018-12-02T07:11:09.117Z,995.39
2018-12-02T07:12:09.130Z,995.44
2018-12-02T07:13:09.094Z,995.48
2018-12-02T07:14:09.081Z,995.46
2018-12-02T07:15:09.117Z,995.48
2018-12-02T07:16:09.061Z,995.45
2018-12-02T07:17:09.045Z,995.41
2018-12-02T07:18:09.080Z,995.41
2018-12-02T07:19:09.029Z,995.46
2018-12-02T07:20:09.011Z,995.55
2018-12-02T07:21:09.007Z,995.56
2018-12-02T07:22:09.032Z,995.53
2018-12-02T07:23:08.979Z,995.54
2018-12-02T07:24:09.064Z,995.52
2018-12-02T07:25:08.957Z,995.50
2018-12-02T07:26:08.955Z,995.55
2018-12-02T07:27:08.969Z,995.49
2018-12-02T07:28:08.925Z,995.54
2018-12-02T07:29:08.939Z,995.54
2018-12-02T07:30:08.906Z,995.46
2018-12-02T07:31:08.887Z,995.46
2018-12-02T07:32:08.885Z,995.50
2018-12-02T07:33:08.869Z,995.43
2018-12-02T07:34:08.896Z,995.44
2018-12-02T07:35:08.843Z,995.37
2018-12-02T07:36:08.870Z,995.51
2018-12-02T07:37:08.832Z,995.48
2018-12-02T07:38:08.811Z,995.40
2018-12-02T07:39:08.803Z,995.29
2018-12-02T07:40:08.850Z,995.33
2018-12-02T07:41:08.810Z,995.31
2018-12-02T07:42:08.773Z,995.31
2018-12-02T07:43:08.760Z,995.33
2018-12-02T07:44:08.806Z,995.27
2018-12-02T07:45:08.731Z,995.33
2018-12-02T07:46:08.717Z,995.32
2018-12-02T07:47:08.713Z,995.35
2018-12-02T07:48:08.750Z,995.36
2018-12-02T07:49:08.713Z,995.26
2018-12-02T07:50:08.679Z,995.27
2018-12-02T07:51:08.667Z,995.25
2018-12-02T07:52:08.659Z,995.30
2018-12-02T07:53:08.639Z,995.35
2018-12-02T07:54:09.041Z,995.30
2018-12-02T07:55:08.656Z,995.28
2018-12-02T07:56:08.609Z,995.30
2018-12-02T07:57:08.595Z,995.29
2018-12-02T07:58:08.603Z,995.29
2018-12-02T07:59:08.646Z,995.28
2018-12-02T08:00:08.564Z,995.35
2018-12-02T08:01:08.555Z,995.34
2018-12-02T08:02:08.543Z,995.29
2018-12-02T08:03:08.530Z,995.38
2018-12-02T08:04:08.605Z,995.29
2018-12-02T08:05:08.508Z,995.26
2018-12-02T08:06:08.530Z,995.30
2018-12-02T08:07:08.487Z,995.26
2018-12-02T08:08:08.485Z,995.32
2018-12-02T08:09:08.465Z,995.29
2018-12-02T08:10:08.481Z,995.33
2018-12-02T08:11:08.440Z,995.29
2018-12-02T08:12:08.467Z,995.35
2018-12-02T08:13:08.427Z,995.26
2018-12-02T08:14:08.410Z,995.33
2018-12-02T08:15:08.401Z,995.23
2018-12-02T08:16:08.425Z,995.23
2018-12-02T08:17:08.371Z,995.08
2018-12-02T08:18:08.362Z,995.16
2018-12-02T08:19:08.385Z,995.22
2018-12-02T08:20:08.462Z,995.24
2018-12-02T08:21:08.327Z,995.22
2018-12-02T08:22:08.313Z,995.22
2018-12-02T08:23:08.335Z,995.25
2018-12-02T08:24:08.297Z,995.25
2018-12-02T08:25:08.275Z,995.26
2018-12-02T08:26:08.271Z,995.29
2018-12-02T08:27:08.315Z,995.19
2018-12-02T08:28:08.250Z,995.27
2018-12-02T08:29:08.236Z,995.23
2018-12-02T08:30:08.234Z,995.35
2018-12-02T08:31:08.254Z,995.29
2018-12-02T08:32:08.201Z,995.32
2018-12-02T08:33:08.796Z,995.29
2018-12-02T08:34:08.182Z,995.23
2018-12-02T08:35:08.172Z,995.28
2018-12-02T08:36:08.198Z,995.25
2018-12-02T08:37:08.147Z,995.30
2018-12-02T08:38:08.185Z,995.28
2018-12-02T08:39:08.169Z,995.26
2018-12-02T08:40:08.111Z,995.28
2018-12-02T08:41:08.095Z,995.27
2018-12-02T08:42:08.118Z,995.27
2018-12-02T08:43:08.073Z,995.28
2018-12-02T08:44:08.167Z,995.30
2018-12-02T08:45:08.056Z,995.30
2018-12-02T08:46:08.062Z,995.36
2018-12-02T08:47:08.035Z,995.39
2018-12-02T08:48:08.022Z,995.36
2018-12-02T08:49:08.058Z,995.29
2018-12-02T08:50:08.012Z,995.31
2018-12-02T08:51:07.988Z,995.31
2018-12-02T08:52:07.974Z,995.34
2018-12-02T08:53:07.973Z,995.38
2018-12-02T08:54:07.989Z,995.33
2018-12-02T08:55:07.942Z,995.30
2018-12-02T08:56:08.182Z,995.36
2018-12-02T08:57:07.924Z,995.33
2018-12-02T08:58:07.908Z,995.29
2018-12-02T08:59:07.949Z,995.20
2018-12-02T09:00:07.900Z,995.31
2018-12-02T09:01:07.906Z,995.27
2018-12-02T09:02:07.867Z,995.27
2018-12-02T09:03:07.853Z,995.36
2018-12-02T09:04:07.865Z,995.33
2018-12-02T09:05:07.829Z,995.34
2018-12-02T09:06:07.858Z,995.32
2018-12-02T09:07:07.811Z,995.30
2018-12-02T09:08:07.795Z,995.33
2018-12-02T09:09:07.790Z,995.33
2018-12-02T09:10:07.773Z,995.27
2018-12-02T09:11:07.783Z,995.29
2018-12-02T09:12:07.786Z,995.35
2018-12-02T09:13:07.739Z,995.31
2018-12-02T09:14:07.737Z,995.30
2018-12-02T09:15:07.718Z,995.30
2018-12-02T09:16:07.741Z,995.29
2018-12-02T09:17:07.692Z,995.30
2018-12-02T09:18:07.683Z,995.28
2018-12-02T09:19:07.692Z,995.31
2018-12-02T09:20:07.702Z,995.33
2018-12-02T09:21:07.654Z,995.32
2018-12-02T09:22:07.672Z,995.37
2018-12-02T09:23:07.632Z,995.32
2018-12-02T09:24:07.617Z,995.31
2018-12-02T09:25:07.642Z,995.29
2018-12-02T09:26:07.607Z,995.28
2018-12-02T09:27:07.580Z,995.21
2018-12-02T09:28:07.574Z,995.27
2018-12-02T09:29:07.599Z,995.32
2018-12-02T09:30:07.556Z,995.32
2018-12-02T09:31:07.567Z,995.33
2018-12-02T09:32:07.532Z,995.32
2018-12-02T09:33:07.553Z,995.28
2018-12-02T09:34:07.501Z,995.35
2018-12-02T09:35:07.499Z,995.33
2018-12-02T09:36:07.485Z,995.37
2018-12-02T09:37:07.484Z,995.30
2018-12-02T09:38:07.496Z,995.37
2018-12-02T09:39:07.495Z,995.37
2018-12-02T09:40:07.537Z,995.46
2018-12-02T09:41:07.473Z,995.43
2018-12-02T09:42:07.415Z,995.36
2018-12-02T09:43:07.434Z,995.44
2018-12-02T09:44:07.392Z,995.35
2018-12-02T09:45:07.381Z,995.35
2018-12-02T09:46:07.401Z,995.38
2018-12-02T09:47:07.396Z,995.38
2018-12-02T09:48:07.347Z,995.46
2018-12-02T09:49:07.338Z,995.43
2018-12-02T09:50:07.335Z,995.39
2018-12-02T09:51:07.321Z,995.38
2018-12-02T09:52:07.339Z,995.43
2018-12-02T09:53:07.292Z,995.39
2018-12-02T09:54:07.288Z,995.39
2018-12-02T09:55:07.312Z,995.37
2018-12-02T09:56:07.262Z,995.45
2018-12-02T09:57:07.266Z,995.45
2018-12-02T09:58:07.248Z,995.48
2018-12-02T09:59:07.285Z,995.51
2018-12-02T10:00:07.249Z,995.45
2018-12-02T10:01:07.203Z,995.52
2018-12-02T10:02:07.196Z,995.48
2018-12-02T10:03:07.212Z,995.44
2018-12-02T10:04:07.200Z,995.47
2018-12-02T10:05:07.168Z,995.49
2018-12-02T10:06:07.143Z,995.45
2018-12-02T10:07:07.144Z,995.48
2018-12-02T10:08:07.125Z,995.47
2018-12-02T10:09:07.154Z,995.49
2018-12-02T10:10:07.102Z,995.51
2018-12-02T10:11:07.090Z,995.55
2018-12-02T10:12:07.079Z,995.53
2018-12-02T10:13:07.110Z,995.51
2018-12-02T10:14:07.056Z,995.54
2018-12-02T10:15:07.052Z,995.52
2018-12-02T10:16:07.030Z,995.51
2018-12-02T10:17:07.021Z,995.49
2018-12-02T10:18:07.050Z,995.51
2018-12-02T10:19:07.002Z,995.53
2018-12-02T10:20:07.050Z,995.48
2018-12-02T10:21:06.980Z,995.51
2018-12-02T10:22:06.986Z,995.52
2018-12-02T10:23:06.956Z,995.52
2018-12-02T10:24:06.949Z,995.50
2018-12-02T10:25:06.973Z,995.53
2018-12-02T10:26:06.923Z,995.50
2018-12-02T10:27:06.915Z,995.38
2018-12-02T10:28:06.906Z,995.41
2018-12-02T10:29:06.887Z,995.48
2018-12-02T10:30:06.907Z,995.37
2018-12-02T10:31:06.863Z,995.42
2018-12-02T10:32:12.214Z,995.39
2018-12-02T10:33:07.854Z,995.40
2018-12-02T10:34:06.831Z,995.43
2018-12-02T10:35:06.819Z,995.41
2018-12-02T10:36:06.807Z,995.44
2018-12-02T10:37:06.828Z,995.42
2018-12-02T10:38:06.818Z,995.35
2018-12-02T10:39:06.778Z,995.43
2018-12-02T10:40:06.765Z,995.35
2018-12-02T10:41:06.763Z,995.35
2018-12-02T10:42:06.748Z,995.45
2018-12-02T10:43:06.805Z,995.29
2018-12-02T10:44:06.722Z,995.27
2018-12-02T10:45:06.711Z,995.28
2018-12-02T10:46:06.728Z,995.26
2018-12-02T10:47:06.694Z,995.29
2018-12-02T10:48:06.738Z,995.35
2018-12-02T10:49:06.664Z,995.29
2018-12-02T10:50:06.662Z,995.23
2018-12-02T10:51:06.686Z,995.20
2018-12-02T10:52:06.631Z,995.19
2018-12-02T10:53:06.616Z,995.31
2018-12-02T10:54:06.645Z,995.29
2018-12-02T10:55:06.633Z,995.22
2018-12-02T10:56:06.588Z,995.30
2018-12-02T10:57:06.581Z,995.22
2018-12-02T10:58:06.781Z,995.23
2018-12-02T10:59:06.640Z,995.18
2018-12-02T11:00:06.596Z,995.14
2018-12-02T11:01:06.543Z,995.10
2018-12-02T11:02:06.521Z,995.17
2018-12-02T11:03:06.516Z,995.18
2018-12-02T11:04:06.501Z,995.11
2018-12-02T11:05:06.521Z,995.15
2018-12-02T11:06:06.476Z,995.08
2018-12-02T11:07:06.466Z,995.13
2018-12-02T11:08:06.451Z,995.17
2018-12-02T11:09:06.457Z,995.19
2018-12-02T11:10:06.457Z,995.13
2018-12-02T11:11:06.450Z,995.16
2018-12-02T11:12:06.423Z,995.16
2018-12-02T11:13:06.395Z,995.20
2018-12-02T11:14:06.425Z,995.23
2018-12-02T11:15:06.378Z,995.19
2018-12-02T11:16:06.431Z,995.24
2018-12-02T11:17:06.360Z,995.19
2018-12-02T11:18:06.344Z,995.25
2018-12-02T11:19:06.357Z,995.27
2018-12-02T11:20:06.331Z,995.30
2018-12-02T11:21:06.342Z,995.24
2018-12-02T11:22:06.325Z,995.29
2018-12-02T11:23:06.330Z,995.26
2018-12-02T11:24:06.292Z,995.26
2018-12-02T11:25:06.272Z,995.33
2018-12-02T11:26:06.323Z,995.29
2018-12-02T11:27:06.241Z,995.27
2018-12-02T11:28:06.226Z,995.32
2018-12-02T11:29:06.217Z,995.26
2018-12-02T11:30:06.212Z,995.24
2018-12-02T11:31:06.213Z,995.27
2018-12-02T11:32:06.180Z,995.29
2018-12-02T11:33:06.178Z,995.28
2018-12-02T11:34:06.203Z,995.28
2018-12-02T11:35:06.204Z,995.26
2018-12-02T11:36:06.151Z,995.27
2018-12-02T11:37:06.141Z,995.30
2018-12-02T11:38:06.123Z,995.33
2018-12-02T11:39:06.627Z,995.34
2018-12-02T11:40:06.105Z,995.34
2018-12-02T11:41:06.094Z,995.34
2018-12-02T11:42:06.073Z,995.29
2018-12-02T11:43:06.063Z,995.35
2018-12-02T11:44:06.114Z,995.31
2018-12-02T11:45:06.041Z,995.34
2018-12-02T11:46:06.024Z,995.34
2018-12-02T11:47:06.018Z,995.35
2018-12-02T11:48:06.008Z,995.34
2018-12-02T11:49:06.066Z,995.39
2018-12-02T11:50:05.986Z,995.38
2018-12-02T11:51:06.140Z,995.43
2018-12-02T11:52:05.968Z,995.43
2018-12-02T11:53:05.949Z,995.48
2018-12-02T11:54:06.019Z,995.46
2018-12-02T11:55:05.932Z,995.48
2018-12-02T11:56:05.967Z,995.48
2018-12-02T11:57:06.550Z,995.52
2018-12-02T11:58:05.989Z,995.52
2018-12-02T11:59:05.896Z,995.53
2018-12-02T12:00:05.878Z,995.54
2018-12-02T12:01:05.878Z,995.54
2018-12-02T12:02:12.909Z,995.61
2018-12-02T12:03:05.894Z,995.55
2018-12-02T12:04:05.846Z,995.60
2018-12-02T12:05:05.821Z,995.62
2018-12-02T12:06:05.813Z,995.62
2018-12-02T12:07:05.833Z,995.67
2018-12-02T12:08:05.785Z,995.63
2018-12-02T12:09:05.795Z,995.58
2018-12-02T12:10:05.773Z,995.62
2018-12-02T12:11:05.843Z,995.57
2018-12-02T12:12:05.811Z,995.62
2018-12-02T12:13:05.740Z,995.66
2018-12-02T12:14:05.732Z,995.60
2018-12-02T12:15:05.843Z,995.63
2018-12-02T12:16:05.695Z,995.76
2018-12-02T12:17:05.690Z,995.67
2018-12-02T12:18:05.709Z,995.72
2018-12-02T12:19:05.668Z,995.74
2018-12-02T12:20:05.680Z,995.71
2018-12-02T12:21:05.658Z,995.71
2018-12-02T12:22:05.625Z,995.77
2018-12-02T12:23:05.676Z,995.73
2018-12-02T12:24:05.605Z,995.73
2018-12-02T12:25:05.601Z,995.72
2018-12-02T12:26:05.646Z,995.76
2018-12-02T12:27:05.584Z,995.75